createdAt,value
2022-08-11T00:00:44.567Z,99703.78
2022-08-11T00:01:49.797Z,99700.94
2022-08-11T00:02:53.416Z,99708.53
2022-08-11T00:04:05.838Z,99714.75
2022-08-11T00:05:13.876Z,99699.78
2022-08-11T00:06:35.187Z,99707.75
2022-08-11T00:07:46.479Z,99709.91
2022-08-11T00:08:51.092Z,99713.31
2022-08-11T00:09:54.702Z,99708.56
2022-08-11T00:11:07.876Z,99716.91
2022-08-11T00:12:16.042Z,99712.00
2022-08-11T00:13:19.210Z,99715.63
2022-08-11T00:14:23.479Z,99705.94
2022-08-11T00:15:28.509Z,99710.22
2022-08-11T00:16:31.846Z,99712.28
2022-08-11T00:17:34.688Z,99712.38
2022-08-11T00:18:45.067Z,99720.69
2022-08-11T00:20:14.684Z,99712.59
2022-08-11T00:21:13.484Z,99713.69
2022-08-11T00:22:23.481Z,99716.44
2022-08-11T00:23:27.738Z,99715.19
2022-08-11T00:24:53.311Z,99715.00
2022-08-11T00:25:58.072Z,99717.38
2022-08-11T00:27:00.976Z,99714.81
2022-08-11T00:28:04.008Z,99713.22
2022-08-11T00:29:11.216Z,99712.34
2022-08-11T00:30:15.998Z,99713.41
2022-08-11T00:31:31.693Z,99720.50
2022-08-11T00:32:35.120Z,99718.16
2022-08-11T00:33:44.915Z,99721.78
2022-08-11T00:34:48.748Z,99725.34
2022-08-11T00:35:57.834Z,99720.03
2022-08-11T00:37:06.332Z,99722.78
2022-08-11T00:38:09.895Z,99722.09
2022-08-11T00:39:14.350Z,99720.69
2022-08-11T00:40:25.796Z,99717.59
2022-08-11T00:42:05.321Z,99718.44
2022-08-11T00:43:32.209Z,99718.72
2022-08-11T00:44:45.140Z,99714.09
2022-08-11T00:46:10.237Z,99715.03
2022-08-11T00:47:35.168Z,99723.38
2022-08-11T00:48:55.340Z,99720.41
2022-08-11T00:50:18.705Z,99723.84
2022-08-11T00:52:02.389Z,99720.81
2022-08-11T00:53:26.165Z,99716.47
2022-08-11T00:54:49.963Z,99718.06
2022-08-11T00:56:22.483Z,99710.56
2022-08-11T00:57:38.393Z,99717.69
2022-08-11T00:59:35.051Z,99719.34
2022-08-11T01:01:05.464Z,99713.00
2022-08-11T01:02:37.102Z,99708.66
2022-08-11T01:04:17.463Z,99711.09
2022-08-11T01:05:46.015Z,99713.66
2022-08-11T01:07:14.122Z,99720.00
2022-08-11T01:08:28.224Z,99709.41
2022-08-11T01:09:49.087Z,99713.75
2022-08-11T01:11:20.960Z,99718.69
2022-08-11T01:12:49.854Z,99714.25
2022-08-11T01:14:12.869Z,99715.28
2022-08-11T01:15:55.989Z,99724.88
2022-08-11T01:17:18.261Z,99715.47
2022-08-11T01:18:47.764Z,99724.50
2022-08-11T01:20:45.574Z,99715.00
2022-08-11T01:21:18.130Z,99708.06
2022-08-11T01:22:23.623Z,99718.31
2022-08-11T01:23:44.405Z,99723.72
2022-08-11T01:25:20.924Z,99725.69
2022-08-11T01:26:44.073Z,99722.31
2022-08-11T01:28:11.160Z,99722.41
2022-08-11T01:29:49.153Z,99716.31
2022-08-11T01:31:29.513Z,99714.13
2022-08-11T01:32:37.889Z,99720.16
2022-08-11T01:34:34.186Z,99715.69
2022-08-11T01:36:06.909Z,99717.63
2022-08-11T01:37:42.823Z,99721.66
2022-08-11T01:38:59.839Z,99717.41
2022-08-11T01:40:08.290Z,99724.75
2022-08-11T01:41:47.098Z,99729.03
2022-08-11T01:43:34.128Z,99737.59
2022-08-11T01:45:03.277Z,99722.63
2022-08-11T01:46:32.569Z,99716.50
2022-08-11T01:48:05.102Z,99719.59
2022-08-11T01:50:08.778Z,99720.81
2022-08-11T01:50:42.837Z,99720.59
2022-08-11T01:51:54.040Z,99731.03
2022-08-11T01:53:17.597Z,99721.19
2022-08-11T01:54:59.067Z,99722.28
2022-08-11T01:56:19.324Z,99724.41
2022-08-11T01:57:40.026Z,99729.34
2022-08-11T01:59:00.469Z,99731.94
2022-08-11T02:00:15.382Z,99722.75
2022-08-11T02:01:20.386Z,99723.72
2022-08-11T02:02:54.074Z,99717.38
2022-08-11T02:04:17.404Z,99724.28
2022-08-11T02:05:22.429Z,99726.69
2022-08-11T02:06:55.271Z,99729.06
2022-08-11T02:08:09.984Z,99716.53
2022-08-11T02:09:29.117Z,99727.75
2022-08-11T02:11:16.741Z,99728.50
2022-08-11T02:12:39.856Z,99724.97
2022-08-11T02:13:59.067Z,99722.75
2022-08-11T02:15:10.035Z,99727.97
2022-08-11T02:16:45.325Z,99721.47
2022-08-11T02:17:54.882Z,99719.88
2022-08-11T02:19:55.127Z,99731.16
2022-08-11T02:21:21.176Z,99728.25
2022-08-11T02:23:05.053Z,99718.25
2022-08-11T02:24:20.874Z,99717.81
2022-08-11T02:25:36.035Z,99724.25
2022-08-11T02:27:02.325Z,99715.44
2022-08-11T02:28:08.825Z,99718.75
2022-08-11T02:29:25.640Z,99720.31
2022-08-11T02:30:36.711Z,99717.16
2022-08-11T02:32:28.687Z,99726.72
2022-08-11T02:33:38.044Z,99722.41
2022-08-11T02:34:59.936Z,99721.94
2022-08-11T02:36:21.225Z,99714.28
2022-08-11T02:37:32.417Z,99715.44
2022-08-11T02:38:45.641Z,99708.19
2022-08-11T02:40:00.454Z,99715.09
2022-08-11T02:41:58.847Z,99716.72
2022-08-11T02:43:40.566Z,99714.19
2022-08-11T02:45:07.047Z,99725.75
2022-08-11T02:46:24.590Z,99719.63
2022-08-11T02:48:04.748Z,99716.06
2022-08-11T02:49:44.614Z,99712.31
2022-08-11T02:51:04.669Z,99707.53
2022-08-11T02:52:48.718Z,99709.06
2022-08-11T02:54:07.276Z,99711.72
2022-08-11T02:55:48.953Z,99717.25
2022-08-11T02:57:18.080Z,99715.78
2022-08-11T02:58:37.157Z,99713.25
2022-08-11T02:59:51.337Z,99705.78
2022-08-11T03:01:12.732Z,99711.16
2022-08-11T03:02:31.324Z,99710.03
2022-08-11T03:03:44.015Z,99706.84
2022-08-11T03:05:08.173Z,99718.00
2022-08-11T03:06:26.925Z,99717.66
2022-08-11T03:07:40.138Z,99719.09
2022-08-11T03:09:10.789Z,99705.31
2022-08-11T03:10:41.453Z,99713.56
2022-08-11T03:12:25.025Z,99708.31
2022-08-11T03:13:52.871Z,99709.13
2022-08-11T03:15:28.716Z,99706.78
2022-08-11T03:16:56.716Z,99714.44
2022-08-11T03:18:17.063Z,99709.25
2022-08-11T03:19:44.126Z,99711.84
2022-08-11T03:20:58.627Z,99721.03
2022-08-11T03:22:23.377Z,99714.91
2022-08-11T03:23:57.411Z,99721.94
2022-08-11T03:25:31.801Z,99727.41
2022-08-11T03:27:07.277Z,99722.66
2022-08-11T03:28:21.676Z,99720.28
2022-08-11T03:29:51.279Z,99737.59
2022-08-11T03:31:27.357Z,99730.47
2022-08-11T03:32:36.183Z,99720.88
2022-08-11T03:34:07.841Z,99726.13
2022-08-11T03:35:20.083Z,99724.63
2022-08-11T03:36:54.714Z,99729.75
2022-08-11T03:38:11.685Z,99720.13
2022-08-11T03:39:56.401Z,99728.38
2022-08-11T03:42:03.381Z,99737.00
2022-08-11T03:43:18.787Z,99740.31
2022-08-11T03:44:41.655Z,99728.75
2022-08-11T03:45:56.355Z,99739.16
2022-08-11T03:47:04.321Z,99727.66
2022-08-11T03:48:30.023Z,99728.28
2022-08-11T03:49:50.893Z,99736.13
2022-08-11T03:51:02.979Z,99738.69
2022-08-11T03:52:37.681Z,99730.63
2022-08-11T03:54:18.945Z,99739.56
2022-08-11T03:55:55.218Z,99735.19
2022-08-11T03:57:34.848Z,99736.59
2022-08-11T03:58:58.215Z,99734.28
2022-08-11T04:00:11.076Z,99734.03
2022-08-11T04:01:34.859Z,99743.75
2022-08-11T04:02:55.902Z,99731.16
2022-08-11T04:04:16.234Z,99732.50
2022-08-11T04:05:33.596Z,99740.25
2022-08-11T04:07:03.932Z,99737.13
2022-08-11T04:08:08.801Z,99743.69
2022-08-11T04:09:35.629Z,99732.28
2022-08-11T04:10:49.763Z,99739.22
2022-08-11T04:12:36.731Z,99729.72
2022-08-11T04:14:37.872Z,99739.09
2022-08-11T04:16:12.167Z,99738.66
2022-08-11T04:17:48.317Z,99743.69
2022-08-11T04:19:11.058Z,99735.50
2022-08-11T04:20:31.366Z,99749.13
2022-08-11T04:21:57.569Z,99738.75
2022-08-11T04:24:36.728Z,99742.81
2022-08-11T04:25:03.141Z,99744.38
2022-08-11T04:26:42.753Z,99744.78
2022-08-11T04:27:56.964Z,99739.63
2022-08-11T04:29:20.710Z,99750.50
2022-08-11T04:30:28.799Z,99734.66
2022-08-11T04:31:51.199Z,99742.88
2022-08-11T04:33:34.317Z,99725.31
2022-08-11T04:34:49.470Z,99730.25
2022-08-11T04:36:10.272Z,99722.19
2022-08-11T04:37:36.952Z,99729.28
2022-08-11T04:38:54.002Z,99725.56
2022-08-11T04:40:33.725Z,99727.56
2022-08-11T04:42:31.880Z,99727.94
2022-08-11T04:44:02.691Z,99723.50
2022-08-11T04:45:58.600Z,99714.38
2022-08-11T04:48:01.825Z,99724.97
2022-08-11T04:49:56.654Z,99720.75
2022-08-11T04:51:48.997Z,99721.63
2022-08-11T04:53:27.933Z,99711.44
2022-08-11T04:55:09.936Z,99703.50
2022-08-11T04:56:37.478Z,99709.91
2022-08-11T04:58:20.337Z,99705.75
2022-08-11T05:00:07.315Z,99705.84
2022-08-11T05:01:39.010Z,99717.34
2022-08-11T05:02:59.591Z,99714.78
2022-08-11T05:04:39.167Z,99713.13
2022-08-11T05:05:57.681Z,99706.16
2022-08-11T05:07:16.647Z,99713.25
2022-08-11T05:08:54.269Z,99714.78
2022-08-11T05:10:19.569Z,99710.44
2022-08-11T05:12:01.562Z,99721.50
2022-08-11T05:13:27.894Z,99712.19
2022-08-11T05:14:52.986Z,99719.97
2022-08-11T05:16:17.214Z,99723.22
2022-08-11T05:17:49.653Z,99722.84
2022-08-11T05:19:12.063Z,99718.00
2022-08-11T05:20:37.796Z,99719.22
2022-08-11T05:22:01.816Z,99715.41
2022-08-11T05:23:25.374Z,99716.50
2022-08-11T05:24:57.381Z,99713.97
2022-08-11T05:26:47.744Z,99715.47
2022-08-11T05:28:23.726Z,99714.41
2022-08-11T05:30:03.764Z,99723.13
2022-08-11T05:31:36.718Z,99725.16
2022-08-11T05:33:02.353Z,99721.91
2022-08-11T05:34:35.811Z,99723.19
2022-08-11T05:36:00.825Z,99719.13
2022-08-11T05:37:26.199Z,99730.31
2022-08-11T05:38:52.271Z,99721.75
2022-08-11T05:40:31.234Z,99731.00
2022-08-11T05:41:52.763Z,99717.78
2022-08-11T05:43:19.983Z,99722.28
2022-08-11T05:44:41.228Z,99723.09
2022-08-11T05:46:06.265Z,99732.28
2022-08-11T05:47:29.367Z,99725.97
2022-08-11T05:48:55.110Z,99727.13
2022-08-11T05:50:16.218Z,99724.63
2022-08-11T05:51:38.086Z,99732.00
2022-08-11T05:53:04.704Z,99738.63
2022-08-11T05:54:28.844Z,99738.09
2022-08-11T05:56:02.072Z,99731.19
2022-08-11T05:57:07.161Z,99729.50
2022-08-11T05:58:12.040Z,99733.38
2022-08-11T05:59:19.039Z,99731.03
2022-08-11T06:00:24.219Z,99742.41
2022-08-11T06:01:34.431Z,99738.53
2022-08-11T06:02:46.475Z,99733.97
2022-08-11T06:04:10.743Z,99734.19
2022-08-11T06:05:14.125Z,99729.13
2022-08-11T06:06:16.621Z,99737.81
2022-08-11T06:07:26.598Z,99742.25
2022-08-11T06:08:33.306Z,99732.94
2022-08-11T06:09:38.235Z,99740.91
2022-08-11T06:10:45.023Z,99738.63
2022-08-11T06:11:47.560Z,99742.28
2022-08-11T06:12:53.487Z,99734.13
2022-08-11T06:13:57.529Z,99734.97
2022-08-11T06:15:11.709Z,99732.94
2022-08-11T06:16:20.994Z,99726.97
2022-08-11T06:17:26.745Z,99737.59
2022-08-11T06:18:47.715Z,99729.59
2022-08-11T06:19:52.763Z,99721.72
2022-08-11T06:20:57.380Z,99722.53
2022-08-11T06:22:01.934Z,99738.81
2022-08-11T06:23:06.715Z,99731.06
2022-08-11T06:24:12.988Z,99735.16
2022-08-11T06:25:16.963Z,99733.53
2022-08-11T06:26:20.464Z,99721.44
2022-08-11T06:27:24.976Z,99721.44
2022-08-11T06:28:35.973Z,99731.38
2022-08-11T06:29:47.586Z,99746.19
2022-08-11T06:30:50.730Z,99741.69
2022-08-11T06:32:01.820Z,99735.53
2022-08-11T06:33:08.051Z,99735.00
2022-08-11T06:34:27.436Z,99732.19
2022-08-11T06:35:48.483Z,99735.75
2022-08-11T06:37:14.850Z,99739.06
2022-08-11T06:38:26.141Z,99731.56
2022-08-11T06:39:59.364Z,99733.81
2022-08-11T06:41:26.044Z,99740.00
2022-08-11T06:42:44.812Z,99734.84
2022-08-11T06:44:03.244Z,99736.63
2022-08-11T06:45:20.990Z,99733.03
2022-08-11T06:46:29.866Z,99734.25
2022-08-11T06:47:33.004Z,99733.53
2022-08-11T06:48:39.854Z,99744.56
2022-08-11T06:50:06.217Z,99742.47
2022-08-11T06:51:13.661Z,99735.66
2022-08-11T06:52:35.181Z,99723.50
2022-08-11T06:54:03.491Z,99730.78
2022-08-11T06:55:55.526Z,99736.63
2022-08-11T06:57:30.293Z,99734.09
2022-08-11T06:58:59.609Z,99737.53
2022-08-11T07:00:24.087Z,99733.72
2022-08-11T07:01:29.269Z,99729.66
2022-08-11T07:02:37.292Z,99738.91
2022-08-11T07:03:45.420Z,99738.06
2022-08-11T07:05:02.631Z,99736.69
2022-08-11T07:06:25.532Z,99734.28
2022-08-11T07:08:33.538Z,99742.13
2022-08-11T07:10:22.808Z,99741.25
2022-08-11T07:12:02.189Z,99746.53
2022-08-11T07:13:39.428Z,99744.56
2022-08-11T07:15:09.954Z,99743.88
2022-08-11T07:16:19.321Z,99740.75
2022-08-11T07:17:32.179Z,99741.81
2022-08-11T07:18:54.952Z,99744.41
2022-08-11T07:20:19.911Z,99737.41
2022-08-11T07:22:06.470Z,99750.91
2022-08-11T07:23:29.020Z,99743.59
2022-08-11T07:25:04.918Z,99742.25
2022-08-11T07:26:26.873Z,99741.84
2022-08-11T07:28:09.411Z,99750.28
2022-08-11T07:29:14.585Z,99742.56
2022-08-11T07:30:17.643Z,99746.66
2022-08-11T07:31:37.260Z,99733.31
2022-08-11T07:32:51.451Z,99739.66
2022-08-11T07:34:15.900Z,99739.16
2022-08-11T07:35:49.910Z,99725.84
2022-08-11T07:37:00.619Z,99731.31
2022-08-11T07:38:07.958Z,99731.28
2022-08-11T07:39:16.720Z,99735.19
2022-08-11T07:40:24.080Z,99734.88
2022-08-11T07:41:31.086Z,99728.56
2022-08-11T07:42:38.430Z,99724.53
2022-08-11T07:43:42.941Z,99727.25
2022-08-11T07:45:05.425Z,99724.59
2022-08-11T07:46:27.458Z,99714.94
2022-08-11T07:47:48.581Z,99721.19
2022-08-11T07:49:11.333Z,99716.66
2022-08-11T07:50:33.681Z,99718.25
2022-08-11T07:51:56.719Z,99724.31
2022-08-11T07:53:00.799Z,99714.75
2022-08-11T07:54:16.488Z,99724.56
2022-08-11T07:55:49.261Z,99712.72
2022-08-11T07:56:55.383Z,99722.81
2022-08-11T07:58:29.982Z,99720.78
2022-08-11T08:00:04.276Z,99708.63
2022-08-11T08:01:43.236Z,99720.44
2022-08-11T08:03:05.149Z,99717.81
2022-08-11T08:04:29.695Z,99715.22
2022-08-11T08:05:52.151Z,99708.50
2022-08-11T08:07:14.218Z,99715.16
2022-08-11T08:08:35.875Z,99714.16
2022-08-11T08:09:57.715Z,99713.88
2022-08-11T08:11:27.200Z,99709.63
2022-08-11T08:12:50.131Z,99717.09
2022-08-11T08:14:12.900Z,99725.41
2022-08-11T08:15:35.682Z,99719.50
2022-08-11T08:16:57.942Z,99721.28
2022-08-11T08:18:09.549Z,99724.91
2022-08-11T08:19:25.051Z,99720.50
2022-08-11T08:20:30.978Z,99718.41
2022-08-11T08:21:34.671Z,99715.50
2022-08-11T08:22:39.344Z,99708.78
2022-08-11T08:23:46.574Z,99718.50
2022-08-11T08:24:49.787Z,99710.53
2022-08-11T08:25:52.507Z,99719.63
2022-08-11T08:27:01.339Z,99722.50
2022-08-11T08:28:11.007Z,99712.97
2022-08-11T08:29:32.695Z,99720.25
2022-08-11T08:30:50.402Z,99713.59
2022-08-11T08:31:53.819Z,99723.16
2022-08-11T08:32:59.029Z,99722.47
2022-08-11T08:34:01.566Z,99716.97
2022-08-11T08:35:05.002Z,99714.84
2022-08-11T08:36:18.592Z,99718.84
2022-08-11T08:37:45.882Z,99714.47
2022-08-11T08:38:54.146Z,99708.72
2022-08-11T08:39:59.257Z,99714.94
2022-08-11T08:41:02.568Z,99712.28
2022-08-11T08:42:12.704Z,99721.84
2022-08-11T08:43:18.372Z,99723.31
2022-08-11T08:44:40.930Z,99714.00
2022-08-11T08:45:45.149Z,99707.88
2022-08-11T08:46:59.355Z,99724.34
2022-08-11T08:48:10.967Z,99730.09
2022-08-11T08:49:19.344Z,99726.56
2022-08-11T08:50:27.683Z,99729.22
2022-08-11T08:51:58.596Z,99724.53
2022-08-11T08:53:04.009Z,99717.63
2022-08-11T08:54:09.163Z,99713.69
2022-08-11T08:55:17.928Z,99723.47
2022-08-11T08:56:28.150Z,99726.97
2022-08-11T08:57:39.272Z,99724.66
2022-08-11T08:58:44.812Z,99718.16
2022-08-11T08:59:51.464Z,99723.56
2022-08-11T09:00:56.634Z,99717.69
2022-08-11T09:02:02.763Z,99724.00
2022-08-11T09:03:22.779Z,99723.56
2022-08-11T09:04:27.656Z,99724.28
2022-08-11T09:05:30.229Z,99718.66
2022-08-11T09:06:34.315Z,99714.53
2022-08-11T09:07:39.968Z,99724.81
2022-08-11T09:08:44.311Z,99720.81
2022-08-11T09:09:53.397Z,99718.91
2022-08-11T09:11:14.983Z,99715.72
2022-08-11T09:12:36.103Z,99714.91
2022-08-11T09:13:44.339Z,99720.13
2022-08-11T09:15:03.632Z,99712.34
2022-08-11T09:16:11.289Z,99709.66
2022-08-11T09:17:14.305Z,99706.47
2022-08-11T09:18:18.003Z,99728.13
2022-08-11T09:19:21.829Z,99720.16
2022-08-11T09:20:26.917Z,99703.41
2022-08-11T09:21:46.253Z,99709.13
2022-08-11T09:24:59.003Z,99717.03
2022-08-11T09:26:20.580Z,99705.44
2022-08-11T09:27:23.768Z,99707.34
2022-08-11T09:28:30.601Z,99702.34
2022-08-11T09:29:33.689Z,99714.66
2022-08-11T09:30:36.912Z,99705.66
2022-08-11T09:31:40.465Z,99701.56
2022-08-11T09:32:43.188Z,99703.31
2022-08-11T09:33:46.543Z,99702.50
2022-08-11T09:34:52.048Z,99703.59
2022-08-11T09:35:55.340Z,99704.72
2022-08-11T09:37:28.238Z,99702.19
2022-08-11T09:38:59.914Z,99703.16
2022-08-11T09:40:22.968Z,99701.53
2022-08-11T09:42:01.907Z,99699.44
2022-08-11T09:43:11.533Z,99705.91
2022-08-11T09:44:32.582Z,99697.44
2022-08-11T09:45:40.229Z,99698.94
2022-08-11T09:46:43.934Z,99693.53
2022-08-11T09:47:47.073Z,99709.47
2022-08-11T09:48:49.790Z,99711.44
2022-08-11T09:50:03.320Z,99693.38
2022-08-11T09:51:08.725Z,99705.38
2022-08-11T09:52:13.778Z,99692.63
2022-08-11T09:53:36.020Z,99695.19
2022-08-11T09:54:42.768Z,99694.00
2022-08-11T09:55:51.506Z,99683.00
2022-08-11T09:57:13.244Z,99684.22
2022-08-11T09:58:41.693Z,99687.13
2022-08-11T09:59:41.455Z,99686.63
2022-08-11T10:00:47.710Z,99693.94
2022-08-11T10:01:57.112Z,99685.88
2022-08-11T10:03:02.695Z,99678.25
2022-08-11T10:04:17.857Z,99673.78
2022-08-11T10:05:39.890Z,99694.78
2022-08-11T10:07:04.191Z,99704.16
2022-08-11T10:08:11.489Z,99691.41
2022-08-11T10:09:19.798Z,99686.56
2022-08-11T10:10:23.526Z,99679.50
2022-08-11T10:11:27.714Z,99673.63
2022-08-11T10:12:36.018Z,99671.34
2022-08-11T10:14:32.760Z,99670.72
2022-08-11T10:15:34.423Z,99676.13
2022-08-11T10:16:41.248Z,99677.13
2022-08-11T10:18:05.728Z,99673.38
2022-08-11T10:19:10.340Z,99662.88
2022-08-11T10:20:12.960Z,99676.06
2022-08-11T10:21:28.278Z,99669.56
2022-08-11T10:22:49.974Z,99673.28
2022-08-11T10:24:12.077Z,99668.81
2022-08-11T10:25:34.735Z,99665.00
2022-08-11T10:27:00.175Z,99654.50
2022-08-11T10:28:28.841Z,99683.28
2022-08-11T10:29:54.930Z,99662.91
2022-08-11T10:31:17.793Z,99663.28
2022-08-11T10:32:57.315Z,99657.03
2022-08-11T10:34:04.046Z,99645.34
2022-08-11T10:35:09.133Z,99647.56
2022-08-11T10:36:16.319Z,99655.13
2022-08-11T10:37:23.183Z,99660.56
2022-08-11T10:38:27.624Z,99656.19
2022-08-11T10:39:30.173Z,99643.13
2022-08-11T10:40:32.719Z,99650.91
2022-08-11T10:42:03.402Z,99647.91
2022-08-11T10:43:14.314Z,99648.06
2022-08-11T10:44:20.485Z,99638.25
2022-08-11T10:45:43.219Z,99648.53
2022-08-11T10:47:05.226Z,99653.75
2022-08-11T10:48:10.988Z,99652.25
2022-08-11T10:49:18.835Z,99657.56
2022-08-11T10:50:40.448Z,99666.19
2022-08-11T10:52:01.978Z,99641.78
2022-08-11T10:53:23.820Z,99647.03
2022-08-11T10:54:45.189Z,99650.44
2022-08-11T10:56:07.243Z,99641.47
2022-08-11T10:57:28.943Z,99638.78
2022-08-11T10:58:47.678Z,99646.22
2022-08-11T10:59:50.372Z,99644.16
2022-08-11T11:00:56.881Z,99637.97
2022-08-11T11:02:00.471Z,99646.19
2022-08-11T11:03:23.305Z,99649.88
2022-08-11T11:04:35.867Z,99638.41
2022-08-11T11:06:27.870Z,99623.56
2022-08-11T11:07:17.577Z,99623.44
2022-08-11T11:08:46.045Z,99625.78
2022-08-11T11:09:50.599Z,99622.88
2022-08-11T11:10:53.499Z,99628.44
2022-08-11T11:12:30.371Z,99628.66
2022-08-11T11:13:53.372Z,99619.16
2022-08-11T11:15:18.130Z,99626.78
2022-08-11T11:16:40.819Z,99617.00
2022-08-11T11:17:56.096Z,99613.91
2022-08-11T11:19:04.152Z,99616.75
2022-08-11T11:20:07.880Z,99601.22
2022-08-11T11:21:32.062Z,99604.63
2022-08-11T11:22:38.527Z,99595.31
2022-08-11T11:23:56.101Z,99600.78
2022-08-11T11:25:30.702Z,99586.50
2022-08-11T11:26:40.562Z,99609.50
2022-08-11T11:28:14.082Z,99600.78
2022-08-11T11:29:38.026Z,99603.13
2022-08-11T11:30:56.997Z,99610.16
2022-08-11T11:32:23.869Z,99605.97
2022-08-11T11:34:06.499Z,99601.56
2022-08-11T11:35:34.369Z,99607.00
2022-08-11T11:36:36.568Z,99609.16
2022-08-11T11:37:40.802Z,99595.50
2022-08-11T11:39:03.237Z,99586.25
2022-08-11T11:40:17.367Z,99576.66
2022-08-11T11:41:25.656Z,99590.56
2022-08-11T11:42:28.936Z,99593.91
2022-08-11T11:43:35.485Z,99587.28
2022-08-11T11:44:39.241Z,99581.09
2022-08-11T11:45:42.355Z,99576.97
2022-08-11T11:46:45.787Z,99587.56
2022-08-11T11:47:53.772Z,99584.34
2022-08-11T11:48:58.774Z,99579.53
2022-08-11T11:50:01.488Z,99579.94
2022-08-11T11:51:04.656Z,99587.72
2022-08-11T11:52:08.939Z,99575.31
2022-08-11T11:53:12.447Z,99573.53
2022-08-11T11:54:16.110Z,99588.00
2022-08-11T11:55:19.570Z,99578.75
2022-08-11T11:56:25.472Z,99578.91
2022-08-11T11:57:58.506Z,99596.34
2022-08-11T11:59:21.775Z,99578.69
2022-08-11T12:00:43.581Z,99582.13
2022-08-11T12:01:50.100Z,99571.28
2022-08-11T12:03:13.402Z,99571.97
2022-08-11T12:04:18.180Z,99554.50
2022-08-11T12:05:22.140Z,99565.66
2022-08-11T12:06:27.527Z,99564.53
2022-08-11T12:07:56.877Z,99553.50
2022-08-11T12:09:15.760Z,99557.53
2022-08-11T12:10:18.670Z,99554.09
2022-08-11T12:11:43.678Z,99559.13
2022-08-11T12:13:05.304Z,99558.19
2022-08-11T12:14:10.821Z,99554.28
2022-08-11T12:15:13.829Z,99550.59
2022-08-11T12:16:34.025Z,99545.16
2022-08-11T12:17:39.677Z,99543.53
2022-08-11T12:18:45.744Z,99545.25
2022-08-11T12:19:49.516Z,99560.81
2022-08-11T12:20:51.926Z,99553.47
2022-08-11T12:22:16.823Z,99537.75
2022-08-11T12:23:38.007Z,99556.22
2022-08-11T12:25:04.605Z,99555.22
2022-08-11T12:26:27.196Z,99553.91
2022-08-11T12:27:30.907Z,99554.34
2022-08-11T12:28:34.421Z,99547.53
2022-08-11T12:29:39.926Z,99548.19
2022-08-11T12:30:49.469Z,99549.66
2022-08-11T12:31:58.006Z,99546.16
2022-08-11T12:33:00.533Z,99543.66
2022-08-11T12:34:09.258Z,99534.78
2022-08-11T12:35:15.050Z,99533.28
2022-08-11T12:36:19.351Z,99540.56
2022-08-11T12:37:36.618Z,99526.00
2022-08-11T12:38:39.079Z,99535.06
2022-08-11T12:40:16.002Z,99530.59
2022-08-11T12:41:49.302Z,99541.75
2022-08-11T12:43:38.467Z,99547.41
2022-08-11T12:45:00.357Z,99542.41
2022-08-11T12:46:06.510Z,99537.16
2022-08-11T12:47:09.893Z,99543.06
2022-08-11T12:48:57.738Z,99541.72
2022-08-11T12:50:23.138Z,99528.81
2022-08-11T12:52:12.037Z,99530.03
2022-08-11T12:53:12.449Z,99513.69
2022-08-11T12:54:20.074Z,99529.78
2022-08-11T12:56:00.532Z,99523.50
2022-08-11T12:57:36.836Z,99522.31
2022-08-11T12:58:42.804Z,99519.47
2022-08-11T13:00:04.891Z,99524.75
2022-08-11T13:01:26.068Z,99505.69
2022-08-11T13:02:47.531Z,99512.50
2022-08-11T13:04:09.016Z,99510.66
2022-08-11T13:05:14.456Z,99504.22
2022-08-11T13:06:17.557Z,99505.34
2022-08-11T13:07:22.402Z,99500.78
2022-08-11T13:08:26.707Z,99506.88
2022-08-11T13:09:31.215Z,99502.75
2022-08-11T13:10:52.862Z,99508.69
2022-08-11T13:12:13.856Z,99505.19
2022-08-11T13:13:54.948Z,99488.97
2022-08-11T13:14:44.068Z,99516.63
2022-08-11T13:15:49.743Z,99511.47
2022-08-11T13:17:11.570Z,99499.91
2022-08-11T13:18:17.901Z,99488.69
2022-08-11T13:19:21.995Z,99494.34
2022-08-11T13:20:25.793Z,99491.00
2022-08-11T13:21:28.585Z,99495.00
2022-08-11T13:22:32.588Z,99492.91
2022-08-11T13:23:36.857Z,99492.19
2022-08-11T13:24:40.493Z,99491.00
2022-08-11T13:25:44.378Z,99485.94
2022-08-11T13:26:50.498Z,99488.38
2022-08-11T13:27:56.533Z,99489.44
2022-08-11T13:29:02.649Z,99476.63
2022-08-11T13:30:37.051Z,99482.25
2022-08-11T13:31:42.841Z,99482.88
2022-08-11T13:32:46.345Z,99483.34
2022-08-11T13:33:51.743Z,99477.53
2022-08-11T13:34:54.906Z,99473.22
2022-08-11T13:35:57.749Z,99476.75
2022-08-11T13:37:04.232Z,99492.88
2022-08-11T13:38:27.280Z,99484.94
2022-08-11T13:39:31.443Z,99476.25
2022-08-11T13:40:54.780Z,99486.88
2022-08-11T13:41:59.366Z,99484.66
2022-08-11T13:43:01.738Z,99481.28
2022-08-11T13:44:08.191Z,99465.97
2022-08-11T13:45:11.471Z,99470.94
2022-08-11T13:46:20.064Z,99470.94
2022-08-11T13:47:24.819Z,99478.56
2022-08-11T13:48:28.256Z,99460.25
2022-08-11T13:49:40.907Z,99468.41
2022-08-11T13:51:04.206Z,99479.13
2022-08-11T13:52:12.792Z,99474.38
2022-08-11T13:53:19.996Z,99471.31
2022-08-11T13:54:26.108Z,99468.47
2022-08-11T13:55:45.534Z,99458.00
2022-08-11T13:56:54.883Z,99464.75
2022-08-11T13:58:08.502Z,99460.06
2022-08-11T13:59:23.860Z,99459.72
2022-08-11T14:00:31.229Z,99448.63
2022-08-11T14:02:03.855Z,99457.00
2022-08-11T14:03:05.173Z,99451.09
2022-08-11T14:04:30.469Z,99450.94
2022-08-11T14:05:39.903Z,99445.56
2022-08-11T14:06:52.305Z,99445.69
2022-08-11T14:08:31.816Z,99445.88
2022-08-11T14:09:42.441Z,99441.47
2022-08-11T14:11:07.608Z,99445.56
2022-08-11T14:12:52.303Z,99433.81
2022-08-11T14:13:58.581Z,99428.72
2022-08-11T14:15:10.212Z,99444.19
2022-08-11T14:16:43.849Z,99437.09
2022-08-11T14:17:52.199Z,99433.44
2022-08-11T14:19:00.455Z,99445.19
2022-08-11T14:20:38.037Z,99433.34
2022-08-11T14:21:54.253Z,99438.78
2022-08-11T14:22:57.842Z,99429.59
2022-08-11T14:24:01.520Z,99440.75
2022-08-11T14:25:04.319Z,99443.44
2022-08-11T14:26:26.825Z,99443.63
2022-08-11T14:28:34.036Z,99439.63
2022-08-11T14:28:55.476Z,99431.94
2022-08-11T14:29:58.837Z,99431.66
2022-08-11T14:31:03.386Z,99433.50
2022-08-11T14:32:08.681Z,99425.88
2022-08-11T14:33:16.558Z,99427.72
2022-08-11T14:34:23.082Z,99418.75
2022-08-11T14:35:28.111Z,99429.59
2022-08-11T14:36:43.165Z,99423.16
2022-08-11T14:37:48.462Z,99421.88
2022-08-11T14:38:51.392Z,99422.13
2022-08-11T14:40:02.949Z,99420.63
2022-08-11T14:41:26.420Z,99418.94
2022-08-11T14:42:48.010Z,99423.16
2022-08-11T14:44:13.666Z,99416.25
2022-08-11T14:45:54.417Z,99413.66
2022-08-11T14:47:05.645Z,99411.41
2022-08-11T14:48:26.907Z,99398.94
2022-08-11T14:49:29.949Z,99408.28
2022-08-11T14:50:34.380Z,99391.38
2022-08-11T14:51:36.947Z,99386.59
2022-08-11T14:52:44.725Z,99398.19
2022-08-11T14:53:58.409Z,99396.59
2022-08-11T14:55:20.597Z,99405.56
2022-08-11T14:56:38.376Z,99393.78
2022-08-11T14:57:55.044Z,99401.66
2022-08-11T14:58:59.700Z,99401.16
2022-08-11T15:00:04.690Z,99404.16
2022-08-11T15:01:27.411Z,99405.97
2022-08-11T15:02:48.414Z,99394.84
2022-08-11T15:04:29.778Z,99392.50
2022-08-11T15:05:15.609Z,99392.59
2022-08-11T15:06:18.511Z,99380.59
2022-08-11T15:07:29.398Z,99391.19
2022-08-11T15:08:54.728Z,99388.63
2022-08-11T15:10:13.262Z,99390.25
2022-08-11T15:11:39.430Z,99391.94
2022-08-11T15:12:44.436Z,99390.63
2022-08-11T15:13:46.780Z,99398.69
2022-08-11T15:15:08.691Z,99393.72
2022-08-11T15:16:29.571Z,99391.81
2022-08-11T15:17:42.950Z,99391.09